createdAt,value
2018-04-23T00:00:43.827Z,8.60
2018-04-23T00:03:10.568Z,8.43
2018-04-23T00:05:37.410Z,8.07
2018-04-23T00:08:04.248Z,8.10
2018-04-23T00:10:30.984Z,9.07
2018-04-23T00:12:57.723Z,9.40
2018-04-23T00:15:24.385Z,8.53
2018-04-23T00:17:51.213Z,9.23
2018-04-23T00:20:17.927Z,8.77
2018-04-23T00:22:44.690Z,9.83
2018-04-23T00:25:11.537Z,8.93
2018-04-23T00:27:38.275Z,9.33
2018-04-23T00:30:05.117Z,9.30
2018-04-23T00:32:31.959Z,9.90
2018-04-23T00:34:58.801Z,8.97
2018-04-23T00:37:25.441Z,9.87
2018-04-23T00:39:52.281Z,9.17
2018-04-23T00:42:19.120Z,9.53
2018-04-23T00:44:46.067Z,10.50
2018-04-23T00:47:14.450Z,9.90
2018-04-23T00:49:41.113Z,9.80
2018-04-23T00:52:08.029Z,10.50
2018-04-23T00:54:34.765Z,9.67
2018-04-23T00:57:01.443Z,10.63
2018-04-23T00:59:28.249Z,10.00
2018-04-23T01:01:55.193Z,10.13
2018-04-23T01:04:21.935Z,10.40
2018-04-23T01:06:48.776Z,10.33
2018-04-23T01:09:15.618Z,10.13
2018-04-23T01:11:42.563Z,10.70
2018-04-23T01:14:09.405Z,11.83
2018-04-23T01:16:36.145Z,10.50
2018-04-23T01:19:03.094Z,10.87
2018-04-23T01:21:29.833Z,11.03
2018-04-23T01:23:56.499Z,11.17
2018-04-23T01:26:23.411Z,11.30
2018-04-23T01:28:50.253Z,10.93
2018-04-23T01:31:17.092Z,11.07
2018-04-23T01:33:43.837Z,11.57
2018-04-23T01:36:10.679Z,11.57
2018-04-23T01:38:37.537Z,10.30
2018-04-23T01:41:04.359Z,11.20
2018-04-23T01:43:31.038Z,11.27
2018-04-23T01:45:57.843Z,12.00
2018-04-23T01:48:24.685Z,12.03
2018-04-23T01:50:51.529Z,12.30
2018-04-23T01:53:18.264Z,11.67
2018-04-23T01:55:44.946Z,12.23
2018-04-23T01:58:11.602Z,12.63
2018-04-23T02:00:39.102Z,12.67
2018-04-23T02:03:05.839Z,13.07
2018-04-23T02:05:32.683Z,12.27
2018-04-23T02:07:59.527Z,12.77
2018-04-23T02:10:26.263Z,12.50
2018-04-23T02:12:53.002Z,12.13
2018-04-23T02:15:19.748Z,13.17
2018-04-23T02:17:46.437Z,13.17
2018-04-23T02:20:13.222Z,12.63
2018-04-23T02:22:40.272Z,14.10
2018-04-23T02:25:07.115Z,15.10
2018-04-23T02:27:33.757Z,14.63
2018-04-23T02:30:00.489Z,14.23
2018-04-23T02:32:27.146Z,13.30
2018-04-23T02:34:53.866Z,14.23
2018-04-23T02:37:20.713Z,13.40
2018-04-23T02:39:47.557Z,13.27
2018-04-23T02:42:14.495Z,13.03
2018-04-23T02:44:41.341Z,13.10
2018-04-23T02:47:08.078Z,12.90
2018-04-23T02:49:34.924Z,14.50
2018-04-23T02:52:01.865Z,12.93
2018-04-23T02:54:28.583Z,13.33
2018-04-23T02:56:56.169Z,14.67
2018-04-23T02:59:22.894Z,13.30
2018-04-23T03:01:49.651Z,13.53
2018-04-23T03:04:16.490Z,14.13
2018-04-23T03:06:43.200Z,12.83
2018-04-23T03:09:10.080Z,13.00
2018-04-23T03:11:36.915Z,12.57
2018-04-23T03:14:03.859Z,11.63
2018-04-23T03:16:30.697Z,13.57
2018-04-23T03:18:57.366Z,12.00
2018-04-23T03:21:24.841Z,12.43
2018-04-23T03:23:51.741Z,11.27
2018-04-23T03:26:18.578Z,11.13
2018-04-23T03:28:45.428Z,10.10
2018-04-23T03:31:12.270Z,10.70
2018-04-23T03:33:39.112Z,10.23
2018-04-23T03:36:05.954Z,9.60
2018-04-23T03:38:33.099Z,9.60
2018-04-23T03:40:59.839Z,9.50
2018-04-23T03:43:26.498Z,10.07
2018-04-23T03:45:53.425Z,9.70
2018-04-23T03:48:20.165Z,10.67
2018-04-23T03:50:46.982Z,10.27
2018-04-23T03:53:14.463Z,11.00
2018-04-23T03:55:41.166Z,11.20
2018-04-23T03:58:08.656Z,11.90
2018-04-23T04:00:35.400Z,12.07
2018-04-23T04:03:02.058Z,12.50
2018-04-23T04:05:28.880Z,12.37
2018-04-23T04:07:55.746Z,12.77
2018-04-23T04:10:23.282Z,13.00
2018-04-23T04:13:02.511Z,13.43
2018-04-23T04:15:41.541Z,13.70
2018-04-23T04:21:10.549Z,14.00
2018-04-23T04:23:37.490Z,13.47
2018-04-23T04:26:04.338Z,14.20
2018-04-23T04:28:31.115Z,15.63
2018-04-23T04:30:58.130Z,16.20
2018-04-23T04:33:24.862Z,16.50
2018-04-23T04:35:51.503Z,17.03
2018-04-23T04:38:18.814Z,18.13
2018-04-23T04:40:45.601Z,18.87
2018-04-23T04:43:12.332Z,18.33
2018-04-23T04:45:39.179Z,21.73
2018-04-23T04:48:06.030Z,21.20
2018-04-23T04:50:32.868Z,22.03
2018-04-23T04:52:59.809Z,22.97
2018-04-23T04:55:26.656Z,24.07
2018-04-23T04:57:53.498Z,25.87
2018-04-23T05:00:20.336Z,25.37
2018-04-23T05:02:47.080Z,25.17
2018-04-23T05:05:13.918Z,25.40
2018-04-23T05:07:40.590Z,26.57
2018-04-23T05:10:07.359Z,26.03
2018-04-23T05:12:34.859Z,25.93
2018-04-23T05:15:01.708Z,27.37
2018-04-23T05:17:28.432Z,25.80
2018-04-23T05:19:55.176Z,27.47
2018-04-23T05:22:21.920Z,26.37
2018-04-23T05:24:48.866Z,27.77
2018-04-23T05:27:15.551Z,26.87
2018-04-23T05:29:43.880Z,25.10
2018-04-23T05:32:10.725Z,27.43
2018-04-23T05:34:37.467Z,25.43
2018-04-23T05:37:04.200Z,27.33
2018-04-23T05:39:30.944Z,26.37
2018-04-23T05:41:57.781Z,26.27
2018-04-23T05:44:24.528Z,26.27
2018-04-23T05:46:51.262Z,26.40
2018-04-23T05:49:18.105Z,26.13
2018-04-23T05:51:45.049Z,22.93
2018-04-23T05:54:11.789Z,25.77
2018-04-23T05:56:38.532Z,24.87
2018-04-23T05:59:05.370Z,25.83
2018-04-23T06:01:32.022Z,24.97
2018-04-23T06:03:59.161Z,24.83
2018-04-23T06:06:26.004Z,23.67
2018-04-23T06:08:52.846Z,21.40
2018-04-23T06:11:19.581Z,22.90
2018-04-23T06:13:46.427Z,21.70
2018-04-23T06:16:13.270Z,22.90
2018-04-23T06:18:40.107Z,21.73
2018-04-23T06:21:06.799Z,21.57
2018-04-23T06:23:33.693Z,21.80
2018-04-23T06:26:00.382Z,20.60
2018-04-23T06:28:27.174Z,23.37
2018-04-23T06:30:54.015Z,19.87
2018-04-23T06:33:20.712Z,20.67
2018-04-23T06:35:48.211Z,20.77
2018-04-23T06:38:14.955Z,19.83
2018-04-23T06:40:41.795Z,19.20
2018-04-23T06:43:09.047Z,19.43
2018-04-23T06:45:35.889Z,18.07
2018-04-23T06:48:02.731Z,16.90
2018-04-23T06:50:29.429Z,17.23
2018-04-23T06:52:56.315Z,16.07
2018-04-23T06:55:23.050Z,15.53
2018-04-23T06:57:49.998Z,15.70
2018-04-23T07:00:16.857Z,15.40
2018-04-23T07:02:43.578Z,14.40
2018-04-23T07:05:10.482Z,14.53
2018-04-23T07:07:37.262Z,15.57
2018-04-23T07:10:04.216Z,15.60
2018-04-23T07:12:31.460Z,15.23
2018-04-23T07:14:58.150Z,15.93
2018-04-23T07:17:25.045Z,15.83
2018-04-23T07:19:51.992Z,16.83
2018-04-23T07:22:18.686Z,17.20
2018-04-23T07:24:45.572Z,15.57
2018-04-23T07:27:12.246Z,18.23
2018-04-23T07:29:39.065Z,19.33
2018-04-23T07:32:05.736Z,19.73
2018-04-23T07:34:33.961Z,16.17
2018-04-23T07:37:00.625Z,16.17
2018-04-23T07:39:27.441Z,15.30
2018-04-23T07:41:54.516Z,12.37
2018-04-23T07:44:21.335Z,12.13
2018-04-23T07:46:48.075Z,10.20
2018-04-23T07:49:15.198Z,9.80
2018-04-23T07:51:42.606Z,10.27
2018-04-23T07:54:09.460Z,9.27
2018-04-23T07:56:36.165Z,10.27
2018-04-23T07:59:03.006Z,10.40
2018-04-23T08:01:30.149Z,11.10
2018-04-23T08:03:56.994Z,10.77
2018-04-23T08:06:23.672Z,11.83
2018-04-23T08:08:50.476Z,10.43
2018-04-23T08:11:17.418Z,10.50
2018-04-23T08:13:44.082Z,9.33
2018-04-23T08:16:10.997Z,10.37
2018-04-23T08:18:37.839Z,10.43
2018-04-23T08:21:04.484Z,9.60
2018-04-23T08:23:31.216Z,10.37
2018-04-23T08:25:58.166Z,10.00
2018-04-23T08:28:24.986Z,9.53
2018-04-23T08:30:51.747Z,8.67
2018-04-23T08:33:18.487Z,9.60
2018-04-23T08:35:45.169Z,6.80
2018-04-23T08:38:11.968Z,6.87
2018-04-23T08:40:38.809Z,6.77
2018-04-23T08:43:05.652Z,6.67
2018-04-23T08:45:32.498Z,5.43
2018-04-23T08:47:59.337Z,5.23
2018-04-23T08:50:26.093Z,4.83
2018-04-23T08:52:53.023Z,4.67
2018-04-23T08:55:19.865Z,4.47
2018-04-23T08:57:46.686Z,5.23
2018-04-23T09:00:13.552Z,4.50
2018-04-23T09:02:40.388Z,4.17
2018-04-23T09:05:07.311Z,3.97
2018-04-23T09:07:34.076Z,4.00
2018-04-23T09:10:01.545Z,3.60
2018-04-23T09:12:28.376Z,3.90
2018-04-23T09:14:55.021Z,4.70
2018-04-23T09:17:21.698Z,5.13
2018-04-23T09:19:49.917Z,4.87
2018-04-23T09:22:16.653Z,5.97
2018-04-23T09:24:43.365Z,5.50
2018-04-23T09:27:10.246Z,5.50
2018-04-23T09:29:37.091Z,4.70
2018-04-23T09:32:03.829Z,5.40
2018-04-23T09:34:30.673Z,5.20
2018-04-23T09:36:57.329Z,5.13
2018-04-23T09:39:24.149Z,5.40
2018-04-23T09:41:50.798Z,4.80
2018-04-23T09:44:17.486Z,5.00
2018-04-23T09:46:44.987Z,4.53
2018-04-23T09:49:12.798Z,4.50
2018-04-23T09:51:39.590Z,4.23
2018-04-23T09:54:06.279Z,4.43
2018-04-23T09:56:33.995Z,4.60
2018-04-23T09:59:00.837Z,5.23
2018-04-23T10:01:29.625Z,4.80
2018-04-23T10:04:11.520Z,5.17
2018-04-23T10:06:38.261Z,5.87
2018-04-23T10:09:05.502Z,5.53
2018-04-23T10:11:32.459Z,6.87
2018-04-23T10:13:59.199Z,6.03
2018-04-23T10:16:26.039Z,5.73
2018-04-23T10:18:52.782Z,5.53
2018-04-23T10:21:19.523Z,5.80
2018-04-23T10:23:46.362Z,5.83
2018-04-23T10:26:13.054Z,4.87
2018-04-23T10:28:39.845Z,5.13
2018-04-23T10:31:06.988Z,5.00
2018-04-23T10:33:33.634Z,5.40
2018-04-23T10:36:00.369Z,4.60
2018-04-23T10:38:27.208Z,5.50
2018-04-23T10:40:54.052Z,5.53
2018-04-23T10:43:20.895Z,4.90
2018-04-23T10:45:47.715Z,5.10
2018-04-23T10:48:15.297Z,4.90
2018-04-23T10:50:42.350Z,4.50
2018-04-23T10:53:09.289Z,4.63
2018-04-23T10:55:36.134Z,4.33
2018-04-23T10:58:02.854Z,4.60
2018-04-23T11:00:30.533Z,4.50
2018-04-23T11:02:57.480Z,3.80
2018-04-23T11:05:24.319Z,4.47
2018-04-23T11:07:50.997Z,4.57
2018-04-23T11:10:18.618Z,4.53
2018-04-23T11:12:45.335Z,4.10
2018-04-23T11:15:12.816Z,4.03
2018-04-23T11:17:39.533Z,4.07
2018-04-23T11:20:06.292Z,3.93
2018-04-23T11:22:33.189Z,4.17
2018-04-23T11:25:01.937Z,3.83
2018-04-23T11:27:29.482Z,4.20
2018-04-23T11:29:56.160Z,3.67
2018-04-23T11:32:22.965Z,3.97
2018-04-23T11:34:49.621Z,4.07
2018-04-23T11:37:16.546Z,4.07
2018-04-23T11:39:43.494Z,4.30
2018-04-23T11:42:10.230Z,4.20
2018-04-23T11:44:36.972Z,4.30
2018-04-23T11:47:03.814Z,3.73
2018-04-23T11:49:30.553Z,3.80
2018-04-23T11:51:57.241Z,3.97
2018-04-23T11:54:24.031Z,3.90
2018-04-23T11:56:50.875Z,3.57
2018-04-23T11:59:17.763Z,4.20
2018-04-23T12:01:44.556Z,4.07
2018-04-23T12:04:11.506Z,3.90
2018-04-23T12:06:38.347Z,4.20
2018-04-23T12:09:06.109Z,3.97
2018-04-23T12:11:33.056Z,3.40
2018-04-23T12:13:59.995Z,3.67
2018-04-23T12:16:26.737Z,4.13
2018-04-23T12:18:53.584Z,4.40
2018-04-23T12:21:20.528Z,4.10
2018-04-23T12:23:47.227Z,3.97
2018-04-23T12:26:14.725Z,3.93
2018-04-23T12:28:41.420Z,4.43
2018-04-23T12:31:08.205Z,4.17
2018-04-23T12:33:34.874Z,3.77
2018-04-23T12:36:01.685Z,4.10
2018-04-23T12:38:28.929Z,3.97
2018-04-23T12:40:55.673Z,4.33
2018-04-23T12:43:22.334Z,4.40
2018-04-23T12:45:49.199Z,3.83
2018-04-23T12:48:15.993Z,4.00
2018-04-23T12:50:42.841Z,4.10
2018-04-23T12:53:09.679Z,4.17
2018-04-23T12:55:36.424Z,3.90
2018-04-23T12:58:03.368Z,4.27
2018-04-23T13:00:30.417Z,3.67
2018-04-23T13:02:57.073Z,3.63
2018-04-23T13:05:23.895Z,3.40
2018-04-23T13:07:50.840Z,3.23
2018-04-23T13:10:17.501Z,3.67
2018-04-23T13:12:44.323Z,4.37
2018-04-23T13:15:11.162Z,3.80
2018-04-23T13:17:37.902Z,4.20
2018-04-23T13:20:04.743Z,4.47
2018-04-23T13:22:31.690Z,4.57
2018-04-23T13:24:58.635Z,4.30
2018-04-23T13:27:25.478Z,4.10
2018-04-23T13:29:52.138Z,4.30
2018-04-23T13:32:19.366Z,3.83
2018-04-23T13:34:46.081Z,4.50
2018-04-23T13:37:12.846Z,4.13
2018-04-23T13:39:39.688Z,3.87
2018-04-23T13:42:06.381Z,3.70
2018-04-23T13:44:33.163Z,3.60
2018-04-23T13:47:00.006Z,3.97
2018-04-23T13:49:26.724Z,4.50
2018-04-23T13:51:53.703Z,4.03
2018-04-23T13:54:20.540Z,4.00
2018-04-23T13:56:47.276Z,4.07
2018-04-23T13:59:14.080Z,4.13
2018-04-23T14:01:41.487Z,4.13
2018-04-23T14:04:08.156Z,4.93
2018-04-23T14:06:35.051Z,4.33
2018-04-23T14:09:02.001Z,3.83
2018-04-23T14:11:28.839Z,4.07
2018-04-23T14:13:55.684Z,3.97
2018-04-23T14:16:23.141Z,3.87
2018-04-23T14:18:49.881Z,4.07
2018-04-23T14:21:16.578Z,4.23
2018-04-23T14:23:43.355Z,4.30
2018-04-23T14:26:10.202Z,5.43
2018-04-23T14:28:37.045Z,4.47
2018-04-23T14:31:03.889Z,4.47
2018-04-23T14:33:30.628Z,4.67
2018-04-23T14:35:57.469Z,4.37
2018-04-23T14:38:24.210Z,4.83
2018-04-23T14:40:50.892Z,4.83
2018-04-23T14:43:18.403Z,4.90
2018-04-23T14:45:45.150Z,5.00
2018-04-23T14:48:11.987Z,5.57
2018-04-23T14:50:38.636Z,4.37
2018-04-23T14:53:05.505Z,4.87
2018-04-23T14:55:32.289Z,4.70
2018-04-23T14:57:58.957Z,4.90
2018-04-23T15:00:25.791Z,4.87
2018-04-23T15:02:52.523Z,4.57
2018-04-23T15:05:19.270Z,4.23
2018-04-23T15:07:45.929Z,4.87
2018-04-23T15:10:12.746Z,4.20
2018-04-23T15:12:39.485Z,4.27
2018-04-23T15:15:06.225Z,4.47
2018-04-23T15:17:33.071Z,4.90
2018-04-23T15:19:59.814Z,4.70
2018-04-23T15:22:26.551Z,4.53
2018-04-23T15:24:53.491Z,4.83
2018-04-23T15:27:20.338Z,4.57
2018-04-23T15:29:47.176Z,5.43
2018-04-23T15:32:13.916Z,4.90
2018-04-23T15:34:40.761Z,5.13
2018-04-23T15:37:07.437Z,5.40
2018-04-23T15:39:34.910Z,5.87
2018-04-23T15:42:01.800Z,4.93
2018-04-23T15:44:28.489Z,5.40
2018-04-23T15:46:55.276Z,5.23
2018-04-23T15:49:22.016Z,5.30
2018-04-23T15:51:48.862Z,4.50
2018-04-23T15:54:15.506Z,4.67
2018-04-23T15:56:42.176Z,3.90
2018-04-23T15:59:08.977Z,4.63
2018-04-23T16:01:35.717Z,4.43
2018-04-23T16:04:03.182Z,4.30
2018-04-23T16:06:30.018Z,3.70
2018-04-23T16:08:56.857Z,4.90
2018-04-23T16:11:23.808Z,4.30
2018-04-23T16:13:50.543Z,4.40
2018-04-23T16:16:17.388Z,5.10
2018-04-23T16:18:44.232Z,5.00
2018-04-23T16:21:10.916Z,4.40
2018-04-23T16:23:37.569Z,5.03
2018-04-23T16:26:05.009Z,4.50
2018-04-23T16:28:33.341Z,5.30
2018-04-23T16:31:00.081Z,4.80
2018-04-23T16:33:26.868Z,4.23
2018-04-23T16:35:53.601Z,5.23
2018-04-23T16:38:20.506Z,5.23
2018-04-23T16:40:47.242Z,4.77
2018-04-23T16:43:13.921Z,4.40
2018-04-23T16:45:40.582Z,4.27
2018-04-23T16:48:08.182Z,5.00
2018-04-23T16:50:34.922Z,4.70
2018-04-23T16:53:02.175Z,4.77
2018-04-23T16:55:29.017Z,4.90
2018-04-23T16:57:55.753Z,4.47
2018-04-23T17:00:22.697Z,4.77
2018-04-23T17:02:49.480Z,4.17
2018-04-23T17:05:16.155Z,4.53
2018-04-23T17:07:43.033Z,4.20
2018-04-23T17:10:10.169Z,4.40
2018-04-23T17:12:37.012Z,4.77
2018-04-23T17:15:03.727Z,4.90
2018-04-23T17:17:30.454Z,4.77
2018-04-23T17:19:57.246Z,4.73
2018-04-23T17:22:23.898Z,4.47
2018-04-23T17:24:50.919Z,4.93
2018-04-23T17:27:17.860Z,4.40
2018-04-23T17:29:44.605Z,3.93
2018-04-23T17:32:11.345Z,3.53
2018-04-23T17:34:38.158Z,3.93
2018-04-23T17:37:04.923Z,3.47
2018-04-23T17:39:31.872Z,3.00
2018-04-23T17:41:58.611Z,2.70
2018-04-23T17:44:25.454Z,3.10
2018-04-23T17:46:52.188Z,2.93
2018-04-23T17:49:18.846Z,2.67
2018-04-23T17:51:45.671Z,2.80
2018-04-23T17:54:21.382Z,3.10
2018-04-23T17:56:48.005Z,3.10
2018-04-23T17:59:14.629Z,2.87
2018-04-23T18:01:41.540Z,2.80
2018-04-23T18:04:08.292Z,3.27
2018-04-23T18:06:35.127Z,3.10
2018-04-23T18:09:02.480Z,3.40
2018-04-23T18:11:29.965Z,2.90
2018-04-23T18:13:57.498Z,3.47
2018-04-23T18:16:24.235Z,4.40
2018-04-23T18:18:50.973Z,3.90
2018-04-23T18:21:17.712Z,3.43
2018-04-23T18:23:44.456Z,4.27
2018-04-23T18:26:11.494Z,3.57
2018-04-23T18:28:38.085Z,3.17
2018-04-23T18:31:04.889Z,2.90
2018-04-23T18:33:31.622Z,2.93
2018-04-23T18:35:58.197Z,3.33
2018-04-23T18:38:24.899Z,3.17
2018-04-23T18:40:51.631Z,4.23
2018-04-23T18:43:18.372Z,3.40
2018-04-23T18:45:45.166Z,2.97
2018-04-23T18:48:11.799Z,3.10
2018-04-23T18:50:38.502Z,3.60
2018-04-23T18:53:05.229Z,3.37
2018-04-23T18:55:32.100Z,3.73
2018-04-23T18:57:59.633Z,3.57
2018-04-23T19:00:26.984Z,3.40
2018-04-23T19:02:53.826Z,3.77
2018-04-23T19:05:20.566Z,3.77
2018-04-23T19:07:47.416Z,3.37
2018-04-23T19:10:16.109Z,3.30
2018-04-23T19:12:43.145Z,3.43
2018-04-23T19:15:09.887Z,3.53
2018-04-23T19:17:36.625Z,4.00
2018-04-23T19:20:03.468Z,3.60
2018-04-23T19:22:30.207Z,3.70
2018-04-23T19:24:56.947Z,3.63
2018-04-23T19:27:23.561Z,3.37
2018-04-23T19:29:50.153Z,3.40
2018-04-23T19:32:16.802Z,3.60
2018-04-23T19:34:43.803Z,4.10
2018-04-23T19:37:10.486Z,3.90
2018-04-23T19:39:37.241Z,4.17
2018-04-23T19:42:04.024Z,3.63
2018-04-23T19:44:30.760Z,3.93
2018-04-23T19:46:57.605Z,3.60
2018-04-23T19:49:24.206Z,3.40
2018-04-23T19:51:51.700Z,4.03
2018-04-23T19:54:18.545Z,3.67
2018-04-23T19:56:45.384Z,3.67
2018-04-23T19:59:12.037Z,3.90
2018-04-23T20:01:38.867Z,4.13
2018-04-23T20:04:05.574Z,3.60
2018-04-23T20:06:32.240Z,4.40
2018-04-23T20:08:59.088Z,4.07
2018-04-23T20:11:25.822Z,3.80
2018-04-23T20:13:52.564Z,3.70
2018-04-23T20:16:19.319Z,3.93
2018-04-23T20:18:46.043Z,3.90
2018-04-23T20:21:12.630Z,3.63
2018-04-23T20:23:39.417Z,3.70
2018-04-23T20:26:06.259Z,3.57
2018-04-23T20:28:33.001Z,3.40
2018-04-23T20:30:59.845Z,3.43
2018-04-23T20:33:26.514Z,4.20
2018-04-23T20:35:53.189Z,4.33
2018-04-23T20:38:19.960Z,3.57
2018-04-23T20:40:46.704Z,3.90
2018-04-23T20:43:13.855Z,3.70
2018-04-23T20:45:40.797Z,3.83
2018-04-23T20:48:07.543Z,4.03
2018-04-23T20:50:34.381Z,4.17
2018-04-23T20:53:01.221Z,3.60
2018-04-23T20:55:27.956Z,4.00
2018-04-23T20:57:54.804Z,3.83
2018-04-23T21:00:21.753Z,4.23
2018-04-23T21:02:48.489Z,4.07
2018-04-23T21:05:15.435Z,3.77
2018-04-23T21:07:42.177Z,4.57
2018-04-23T21:10:08.913Z,4.23
2018-04-23T21:12:35.530Z,4.10
2018-04-23T21:15:02.294Z,4.27
2018-04-23T21:17:29.028Z,4.27
2018-04-23T21:19:55.873Z,4.20
2018-04-23T21:22:22.719Z,4.27
2018-04-23T21:24:49.456Z,4.40
2018-04-23T21:27:16.294Z,5.07
2018-04-23T21:29:43.140Z,4.17
2018-04-23T21:32:09.983Z,3.83
2018-04-23T21:34:36.724Z,3.87
2018-04-23T21:37:03.319Z,4.33
2018-04-23T21:39:30.100Z,4.17
2018-04-23T21:41:57.051Z,3.80
2018-04-23T21:44:24.196Z,3.83
2018-04-23T21:46:50.935Z,4.67
2018-04-23T21:49:17.778Z,5.20
2018-04-23T21:51:44.627Z,4.80
2018-04-23T21:54:12.281Z,4.53
2018-04-23T21:56:38.911Z,4.63
2018-04-23T21:59:05.638Z,4.07
2018-04-23T22:01:32.326Z,4.30
2018-04-23T22:03:59.858Z,3.80
2018-04-23T22:06:26.572Z,4.17
2018-04-23T22:08:53.235Z,4.60
2018-04-23T22:11:20.254Z,4.10
2018-04-23T22:13:46.833Z,4.10
2018-04-23T22:16:14.272Z,4.03
2018-04-23T22:18:42.368Z,5.00
2018-04-23T22:21:09.719Z,4.77
2018-04-23T22:23:37.257Z,5.07
2018-04-23T22:26:03.996Z,4.10
2018-04-23T22:28:30.641Z,4.63
2018-04-23T22:30:57.365Z,4.57
2018-04-23T22:33:24.113Z,4.47
2018-04-23T22:35:50.957Z,4.23
2018-04-23T22:38:18.439Z,4.33
2018-04-23T22:40:45.116Z,3.97
2018-04-23T22:43:11.754Z,4.70
2018-04-23T22:45:39.190Z,4.43
2018-04-23T22:48:05.772Z,4.30
2018-04-23T22:50:32.594Z,4.80
2018-04-23T22:52:59.979Z,4.60
2018-04-23T22:55:28.255Z,4.30
2018-04-23T22:57:56.323Z,4.53
2018-04-23T23:00:23.168Z,4.27
2018-04-23T23:02:49.921Z,4.80
2018-04-23T23:05:16.747Z,4.47
2018-04-23T23:07:43.589Z,5.40
2018-04-23T23:10:10.538Z,5.17
2018-04-23T23:12:37.267Z,5.60
2018-04-23T23:15:04.012Z,5.30
2018-04-23T23:17:30.723Z,5.37
2018-04-23T23:19:57.491Z,5.33
2018-04-23T23:22:24.232Z,5.27
2018-04-23T23:24:52.438Z,6.07
2018-04-23T23:27:19.094Z,6.03
2018-04-23T23:29:46.606Z,6.20
2018-04-23T23:32:13.450Z,6.57
2018-04-23T23:34:40.295Z,6.43
2018-04-23T23:37:07.134Z,6.00
2018-04-23T23:39:33.983Z,6.03
2018-04-23T23:42:00.838Z,6.43
2018-04-23T23:44:27.766Z,6.53
2018-04-23T23:46:54.451Z,6.63
2018-04-23T23:49:21.341Z,6.60
2018-04-23T23:51:48.017Z,7.20
2018-04-23T23:54:15.539Z,6.60
2018-04-23T23:56:42.489Z,6.97
2018-04-23T23:59:09.328Z,6.47
